createdAt,value
2023-04-18T00:00:10.658Z,3.20
2023-04-18T00:00:41.585Z,3.20
2023-04-18T00:01:12.108Z,2.90
2023-04-18T00:01:43.231Z,3.10
2023-04-18T00:02:13.927Z,2.90
2023-04-18T00:02:44.722Z,2.80
2023-04-18T00:03:15.726Z,3.30
2023-04-18T00:03:46.645Z,3.00
2023-04-18T00:04:17.294Z,3.20
2023-04-18T00:04:47.840Z,2.80
2023-04-18T00:05:18.244Z,3.20
2023-04-18T00:05:49.007Z,3.10
2023-04-18T00:06:19.493Z,2.90
2023-04-18T00:06:50.715Z,3.40
2023-04-18T00:07:21.239Z,2.90
2023-04-18T00:07:51.775Z,3.20
2023-04-18T00:08:22.291Z,3.10
2023-04-18T00:08:52.761Z,3.20
2023-04-18T00:09:23.832Z,3.30
2023-04-18T00:09:54.528Z,3.10
2023-04-18T00:10:25.038Z,3.10
2023-04-18T00:10:55.524Z,3.10
2023-04-18T00:11:26.513Z,2.90
2023-04-18T00:11:57.458Z,3.10
2023-04-18T00:12:28.422Z,3.20
2023-04-18T00:12:59.566Z,3.00
2023-04-18T00:13:30.095Z,3.50
2023-04-18T00:14:00.552Z,3.10
2023-04-18T00:14:31.588Z,3.00
2023-04-18T00:15:02.161Z,3.50
2023-04-18T00:15:32.612Z,3.10
2023-04-18T00:16:03.763Z,3.10
2023-04-18T00:16:34.318Z,3.40
2023-04-18T00:17:05.229Z,3.40
2023-04-18T00:17:35.788Z,3.50
2023-04-18T00:18:06.605Z,3.20
2023-04-18T00:18:37.465Z,3.20
2023-04-18T00:19:08.206Z,3.30
2023-04-18T00:19:38.740Z,3.30
2023-04-18T00:20:09.229Z,3.30
2023-04-18T00:20:40.205Z,3.20
2023-04-18T00:21:11.225Z,3.40
2023-04-18T00:21:41.684Z,3.40
2023-04-18T00:22:14.957Z,3.40
2023-04-18T00:22:43.467Z,3.80
2023-04-18T00:23:14.408Z,3.70
2023-04-18T00:23:45.416Z,3.70
2023-04-18T00:24:16.522Z,3.10
2023-04-18T00:24:47.055Z,3.70
2023-04-18T00:25:20.783Z,3.90
2023-04-18T00:25:48.800Z,3.60
2023-04-18T00:26:19.319Z,3.80
2023-04-18T00:26:50.180Z,3.50
2023-04-18T00:27:20.741Z,4.10
2023-04-18T00:27:51.197Z,3.80
2023-04-18T00:28:22.377Z,3.50
2023-04-18T00:28:52.976Z,3.90
2023-04-18T00:29:23.420Z,3.30
2023-04-18T00:29:54.368Z,3.60
2023-04-18T00:30:25.321Z,3.60
2023-04-18T00:30:56.371Z,3.70
2023-04-18T00:31:27.465Z,3.80
2023-04-18T00:31:58.011Z,3.70
2023-04-18T00:32:28.540Z,4.10
2023-04-18T00:32:59.241Z,3.60
2023-04-18T00:33:29.798Z,3.50
2023-04-18T00:34:00.818Z,3.60
2023-04-18T00:34:31.682Z,3.50
2023-04-18T00:35:02.380Z,3.80
2023-04-18T00:35:32.891Z,3.90
2023-04-18T00:36:03.500Z,3.80
2023-04-18T00:36:34.022Z,3.90
2023-04-18T00:37:04.652Z,3.80
2023-04-18T00:37:35.549Z,3.70
2023-04-18T00:38:06.061Z,4.00
2023-04-18T00:38:36.576Z,3.60
2023-04-18T00:39:07.102Z,3.40
2023-04-18T00:39:37.537Z,3.80
2023-04-18T00:40:08.700Z,3.90
2023-04-18T00:40:39.465Z,3.90
2023-04-18T00:41:10.168Z,3.40
2023-04-18T00:41:40.848Z,3.90
2023-04-18T00:42:11.536Z,3.40
2023-04-18T00:42:42.246Z,3.70
2023-04-18T00:43:13.469Z,3.30
2023-04-18T00:45:04.712Z,3.50
2023-04-18T00:45:35.125Z,4.00
2023-04-18T00:46:06.285Z,3.50
2023-04-18T00:46:36.985Z,4.00
2023-04-18T00:47:07.642Z,3.60
2023-04-18T00:47:38.565Z,4.00
2023-04-18T00:48:09.394Z,3.90
2023-04-18T00:48:39.939Z,3.70
2023-04-18T00:49:10.901Z,4.60
2023-04-18T00:49:41.959Z,3.30
2023-04-18T00:50:12.483Z,3.50
2023-04-18T00:50:43.207Z,4.30
2023-04-18T00:51:13.733Z,3.30
2023-04-18T00:51:44.414Z,4.20
2023-04-18T00:52:15.100Z,4.10
2023-04-18T00:52:45.637Z,4.20
2023-04-18T00:53:16.108Z,3.70
2023-04-18T00:53:47.393Z,3.70
2023-04-18T00:54:18.076Z,3.60
2023-04-18T00:55:29.722Z,3.70
2023-04-18T00:56:00.470Z,4.00
2023-04-18T00:57:11.992Z,3.80
2023-04-18T00:57:43.093Z,4.30
2023-04-18T00:58:13.797Z,3.60
2023-04-18T00:58:44.535Z,4.20
2023-04-18T00:59:15.008Z,3.40
2023-04-18T00:59:46.214Z,3.60
2023-04-18T01:00:16.767Z,3.70
2023-04-18T01:00:47.671Z,3.60
2023-04-18T01:01:18.270Z,4.00
2023-04-18T01:01:48.915Z,4.70
2023-04-18T01:02:19.749Z,3.90
2023-04-18T01:02:50.946Z,4.10
2023-04-18T01:03:21.219Z,3.70
2023-04-18T01:03:52.156Z,4.20
2023-04-18T01:05:06.840Z,4.10
2023-04-18T01:05:37.421Z,3.60
2023-04-18T01:06:08.189Z,4.50
2023-04-18T01:06:39.161Z,4.10
2023-04-18T01:07:09.875Z,4.30
2023-04-18T01:07:40.821Z,4.60
2023-04-18T01:08:11.521Z,4.10
2023-04-18T01:08:42.016Z,4.60
2023-04-18T01:09:13.110Z,4.30
2023-04-18T01:09:43.804Z,4.30
2023-04-18T01:10:14.539Z,4.20
2023-04-18T01:10:45.459Z,4.20
2023-04-18T01:11:16.167Z,4.00
2023-04-18T01:11:46.700Z,4.10
2023-04-18T01:12:17.157Z,4.30
2023-04-18T01:12:48.130Z,4.40
2023-04-18T01:13:19.107Z,4.20
2023-04-18T01:13:49.824Z,4.10
2023-04-18T01:14:20.651Z,3.90
2023-04-18T01:14:51.456Z,4.30
2023-04-18T01:15:21.942Z,4.10
2023-04-18T01:15:52.906Z,4.70
2023-04-18T01:16:23.442Z,4.80
2023-04-18T01:16:54.191Z,4.00
2023-04-18T01:17:24.730Z,3.80
2023-04-18T01:17:55.244Z,4.40
2023-04-18T01:18:25.716Z,4.80
2023-04-18T01:18:56.675Z,4.60
2023-04-18T01:19:27.634Z,4.30
2023-04-18T01:19:58.813Z,5.10
2023-04-18T01:20:29.351Z,4.40
2023-04-18T01:20:59.834Z,4.80
2023-04-18T01:21:30.790Z,4.70
2023-04-18T01:22:01.837Z,4.70
2023-04-18T01:22:32.311Z,4.80
2023-04-18T01:23:03.483Z,4.80
2023-04-18T01:23:34.008Z,4.60
2023-04-18T01:24:04.452Z,4.40
2023-04-18T01:24:35.480Z,4.70
2023-04-18T01:25:05.905Z,4.60
2023-04-18T01:25:36.949Z,4.70
2023-04-18T01:26:07.609Z,4.80
2023-04-18T01:26:38.175Z,4.60
2023-04-18T01:27:08.637Z,5.00
2023-04-18T01:27:39.604Z,4.70
2023-04-18T01:28:10.553Z,4.40
2023-04-18T01:28:41.520Z,4.60
2023-04-18T01:29:12.687Z,4.50
2023-04-18T01:29:43.218Z,4.70
2023-04-18T01:30:13.742Z,4.90
2023-04-18T01:30:44.267Z,4.40
2023-04-18T01:31:14.746Z,4.50
2023-04-18T01:31:45.292Z,4.60
2023-04-18T01:32:15.971Z,4.90
2023-04-18T01:32:46.581Z,5.10
2023-04-18T01:33:17.151Z,4.70
2023-04-18T01:33:47.616Z,5.00
2023-04-18T01:34:18.574Z,5.60
2023-04-18T01:34:49.551Z,5.10
2023-04-18T01:35:20.764Z,4.90
2023-04-18T01:35:51.288Z,5.20
2023-04-18T01:36:21.755Z,4.70
2023-04-18T01:36:52.717Z,4.90
2023-04-18T01:37:23.665Z,5.10
2023-04-18T01:37:54.678Z,5.00
2023-04-18T01:38:25.365Z,5.00
2023-04-18T01:38:55.899Z,4.40
2023-04-18T01:39:26.363Z,5.30
2023-04-18T01:39:57.323Z,5.30
2023-04-18T01:40:28.336Z,5.00
2023-04-18T01:40:59.353Z,4.90
2023-04-18T01:41:30.090Z,5.30
2023-04-18T01:42:00.636Z,5.20
2023-04-18T01:42:31.334Z,5.20
2023-04-18T01:43:02.010Z,5.10
2023-04-18T01:43:32.602Z,5.00
2023-04-18T01:44:03.555Z,5.40
2023-04-18T01:44:34.714Z,5.20
2023-04-18T01:45:05.251Z,5.30
2023-04-18T01:45:35.772Z,5.40
2023-04-18T01:46:06.353Z,4.90
2023-04-18T01:46:36.883Z,4.90
2023-04-18T01:47:07.585Z,5.10
2023-04-18T01:47:38.577Z,5.20
2023-04-18T01:48:08.780Z,5.50
2023-04-18T01:49:20.362Z,5.20
2023-04-18T01:49:50.813Z,4.90
2023-04-18T01:50:21.907Z,5.70
2023-04-18T01:51:33.477Z,4.90
2023-04-18T01:52:03.944Z,5.40
2023-04-18T01:52:34.985Z,5.60
2023-04-18T01:53:05.617Z,5.10
2023-04-18T01:53:36.154Z,6.00
2023-04-18T01:54:07.010Z,5.70
2023-04-18T01:54:37.536Z,5.10
2023-04-18T01:55:08.247Z,5.80
2023-04-18T01:55:38.939Z,5.30
2023-04-18T01:56:09.629Z,6.40
2023-04-18T01:56:40.300Z,5.70
2023-04-18T01:57:11.064Z,5.50
2023-04-18T01:57:41.750Z,5.50
2023-04-18T01:58:12.253Z,5.10
2023-04-18T01:58:43.419Z,5.30
2023-04-18T01:59:14.040Z,5.50
2023-04-18T01:59:44.707Z,5.30
2023-04-18T02:00:15.595Z,5.20
2023-04-18T02:00:46.235Z,5.20
2023-04-18T02:01:57.889Z,5.30
2023-04-18T02:03:10.883Z,5.00
2023-04-18T02:03:40.568Z,6.30
2023-04-18T02:04:11.052Z,5.80
2023-04-18T02:04:41.745Z,6.20
2023-04-18T02:05:12.371Z,5.10
2023-04-18T02:05:43.265Z,5.50
2023-04-18T02:06:13.877Z,5.20
2023-04-18T02:06:44.572Z,5.70
2023-04-18T02:07:15.248Z,5.60
2023-04-18T02:07:46.153Z,5.00
2023-04-18T02:08:16.659Z,5.30
2023-04-18T02:08:47.367Z,5.50
2023-04-18T02:09:17.868Z,5.50
2023-04-18T02:09:48.988Z,6.20
2023-04-18T02:10:19.573Z,6.30
2023-04-18T02:10:50.268Z,5.70
2023-04-18T02:11:20.961Z,6.50
2023-04-18T02:11:51.666Z,5.90
2023-04-18T02:12:22.205Z,6.10
2023-04-18T02:12:53.032Z,6.10
2023-04-18T02:13:23.674Z,5.40
2023-04-18T02:14:35.211Z,5.80
2023-04-18T02:15:05.914Z,6.10
2023-04-18T02:15:36.439Z,6.10
2023-04-18T02:16:07.108Z,6.10
2023-04-18T02:16:37.868Z,6.30
2023-04-18T02:17:49.347Z,5.40
2023-04-18T02:18:20.477Z,5.40
2023-04-18T02:18:50.981Z,5.60
2023-04-18T02:19:22.120Z,5.90
2023-04-18T02:19:52.834Z,6.00
2023-04-18T02:20:23.553Z,5.50
2023-04-18T02:20:54.332Z,6.00
2023-04-18T02:21:24.942Z,6.10
2023-04-18T02:21:55.642Z,6.30
2023-04-18T02:22:26.316Z,5.80
2023-04-18T02:22:57.002Z,5.40
2023-04-18T02:23:27.490Z,5.80
2023-04-18T02:23:58.379Z,5.80
2023-04-18T02:24:28.893Z,5.80
2023-04-18T02:25:00.035Z,6.00
2023-04-18T02:25:30.766Z,5.60
2023-04-18T02:26:01.436Z,6.00
2023-04-18T02:30:33.129Z,6.20
2023-04-18T02:31:03.738Z,6.00
2023-04-18T02:31:34.460Z,5.80
2023-04-18T02:32:05.594Z,5.40
2023-04-18T02:32:35.904Z,5.90
2023-04-18T02:33:06.903Z,5.10
2023-04-18T02:33:37.109Z,5.70
2023-04-18T02:34:07.777Z,5.30
2023-04-18T02:34:38.453Z,6.20
2023-04-18T02:35:09.163Z,6.00
2023-04-18T02:35:39.674Z,5.70
2023-04-18T02:36:10.908Z,5.50
2023-04-18T02:36:41.600Z,6.20
2023-04-18T02:37:12.152Z,5.70
2023-04-18T02:37:42.838Z,5.80
2023-04-18T02:38:13.561Z,5.80
2023-04-18T02:38:44.097Z,5.70
2023-04-18T02:39:14.883Z,5.80
2023-04-18T02:39:45.371Z,5.60
2023-04-18T02:40:16.109Z,5.70
2023-04-18T02:40:46.792Z,5.60
2023-04-18T02:41:17.213Z,5.30
2023-04-18T02:41:48.380Z,6.10
2023-04-18T02:42:19.199Z,5.90
2023-04-18T02:42:49.875Z,6.20
2023-04-18T02:43:20.467Z,6.00
2023-04-18T02:43:51.267Z,5.80
2023-04-18T02:44:21.897Z,6.10
2023-04-18T02:44:52.632Z,6.20
2023-04-18T02:46:04.333Z,5.20
2023-04-18T02:46:34.996Z,5.60
2023-04-18T02:47:05.686Z,5.60
2023-04-18T02:47:46.968Z,5.90
2023-04-18T02:48:08.149Z,6.00
2023-04-18T02:48:37.815Z,6.40
2023-04-18T02:49:08.549Z,5.90
2023-04-18T02:49:39.096Z,5.70
2023-04-18T02:50:09.577Z,5.70
2023-04-18T02:50:40.525Z,5.80
2023-04-18T02:51:11.737Z,6.00
2023-04-18T02:51:42.426Z,6.10
2023-04-18T02:52:13.137Z,5.50
2023-04-18T02:52:43.943Z,5.80
2023-04-18T02:53:14.499Z,6.00
2023-04-18T02:53:45.034Z,5.60
2023-04-18T02:54:15.843Z,5.50
2023-04-18T02:54:46.123Z,5.70
2023-04-18T02:55:16.590Z,6.00
2023-04-18T02:55:47.510Z,6.10
2023-04-18T02:56:18.471Z,5.70
2023-04-18T02:56:49.496Z,6.30
2023-04-18T02:57:20.143Z,6.00
2023-04-18T02:57:50.975Z,6.30
2023-04-18T02:58:21.557Z,5.90
2023-04-18T02:58:52.022Z,5.90
2023-04-18T02:59:22.985Z,6.10
2023-04-18T02:59:53.994Z,6.40
2023-04-18T03:00:24.716Z,6.00
2023-04-18T03:00:55.287Z,6.70
2023-04-18T03:01:25.821Z,5.80
2023-04-18T03:01:56.331Z,6.50
2023-04-18T03:02:27.073Z,6.00
2023-04-18T03:02:57.892Z,6.40
2023-04-18T03:03:28.740Z,6.50
2023-04-18T03:03:59.591Z,6.40
2023-04-18T03:04:30.223Z,6.20
2023-04-18T03:05:00.975Z,5.70
2023-04-18T03:05:31.683Z,6.10
2023-04-18T03:06:43.257Z,6.60
2023-04-18T03:07:13.737Z,5.90
2023-04-18T03:07:44.770Z,5.80
2023-04-18T03:08:15.471Z,6.40
2023-04-18T03:08:46.336Z,7.00
2023-04-18T03:09:17.163Z,6.50
2023-04-18T03:09:47.896Z,5.80
2023-04-18T03:10:18.594Z,6.50
2023-04-18T03:10:49.410Z,7.30
2023-04-18T03:11:20.121Z,6.10
2023-04-18T03:11:50.698Z,6.20
2023-04-18T03:12:21.686Z,6.70
2023-04-18T03:12:51.961Z,6.20
2023-04-18T03:13:22.663Z,5.90
2023-04-18T03:13:53.352Z,7.20
2023-04-18T03:14:24.110Z,6.20
2023-04-18T03:14:55.048Z,6.60
2023-04-18T03:15:25.970Z,6.60
2023-04-18T03:15:56.673Z,6.50
2023-04-18T03:16:27.503Z,6.50
2023-04-18T03:16:58.335Z,5.90
2023-04-18T03:17:29.074Z,6.50
2023-04-18T03:17:59.851Z,6.00
2023-04-18T03:19:11.376Z,6.00
2023-04-18T03:19:42.369Z,6.10
2023-04-18T03:20:13.398Z,6.50
2023-04-18T03:20:43.866Z,5.90
2023-04-18T03:21:14.862Z,6.60
2023-04-18T03:21:46.033Z,5.80
2023-04-18T03:22:16.565Z,5.30
2023-04-18T03:22:47.187Z,6.40
2023-04-18T03:23:17.704Z,5.70
2023-04-18T03:23:48.102Z,6.50
2023-04-18T03:24:19.517Z,6.10
2023-04-18T03:24:50.017Z,6.30
2023-04-18T03:25:20.487Z,6.10
2023-04-18T03:25:51.469Z,6.20
2023-04-18T03:26:22.132Z,6.00
2023-04-18T03:26:52.922Z,7.00
2023-04-18T03:27:23.831Z,6.00
2023-04-18T03:27:54.356Z,6.60
2023-04-18T03:28:25.049Z,6.00
2023-04-18T03:28:55.722Z,6.10
2023-04-18T03:29:26.421Z,6.40
2023-04-18T03:29:57.109Z,6.30
2023-04-18T03:30:27.821Z,5.90
2023-04-18T03:30:58.379Z,5.70
2023-04-18T03:31:29.064Z,6.00
2023-04-18T03:31:59.942Z,5.70
2023-04-18T03:32:30.585Z,5.90
2023-04-18T03:33:01.272Z,6.00
2023-04-18T03:33:32.056Z,5.60
2023-04-18T03:34:02.694Z,6.10
2023-04-18T03:34:33.383Z,5.90
2023-04-18T03:35:04.066Z,6.00
2023-04-18T03:35:34.748Z,6.10
2023-04-18T03:36:05.458Z,5.70
2023-04-18T03:36:36.339Z,5.90
2023-04-18T03:37:47.858Z,5.80
2023-04-18T03:38:19.032Z,6.00
2023-04-18T03:38:49.673Z,6.30
2023-04-18T03:39:20.562Z,7.00
2023-04-18T03:39:51.174Z,6.40
2023-04-18T03:40:22.045Z,6.20
2023-04-18T03:40:52.604Z,6.40
2023-04-18T03:41:23.222Z,6.60
2023-04-18T03:41:53.749Z,6.00
2023-04-18T03:42:24.177Z,6.40
2023-04-18T03:42:55.211Z,6.40
2023-04-18T03:43:26.084Z,6.00
2023-04-18T03:43:56.615Z,6.30
2023-04-18T03:44:27.320Z,6.10
2023-04-18T03:44:58.271Z,6.60
2023-04-18T03:45:28.972Z,6.70
2023-04-18T03:45:59.714Z,5.80
2023-04-18T03:46:30.693Z,5.90
2023-04-18T03:47:01.268Z,5.90
2023-04-18T03:47:32.097Z,6.10
2023-04-18T03:48:02.720Z,7.00
2023-04-18T03:48:33.549Z,6.60
2023-04-18T03:49:04.200Z,6.00
2023-04-18T03:49:35.066Z,5.80
2023-04-18T03:50:05.785Z,6.10
2023-04-18T03:50:36.298Z,6.50
2023-04-18T03:51:07.335Z,6.20
2023-04-18T03:51:37.803Z,6.30
2023-04-18T03:52:08.728Z,6.20
2023-04-18T03:52:39.615Z,5.60
2023-04-18T03:53:10.197Z,6.50
2023-04-18T03:53:40.883Z,6.10
2023-04-18T03:54:11.452Z,6.00
2023-04-18T03:54:42.116Z,5.80
2023-04-18T03:55:13.118Z,6.10
2023-04-18T03:55:43.833Z,6.50
2023-04-18T03:56:14.332Z,6.30
2023-04-18T03:56:45.290Z,6.30
2023-04-18T03:57:16.249Z,6.80
2023-04-18T03:57:47.286Z,6.80
2023-04-18T03:58:18.290Z,6.10
2023-04-18T03:58:48.678Z,6.10
2023-04-18T03:59:19.150Z,6.60
2023-04-18T03:59:50.215Z,6.70
2023-04-18T04:01:01.818Z,6.00
2023-04-18T04:01:32.378Z,6.40
2023-04-18T04:02:03.005Z,6.20
2023-04-18T04:02:33.983Z,6.70
2023-04-18T04:03:04.832Z,6.30
2023-04-18T04:03:35.937Z,6.60
2023-04-18T04:04:06.264Z,6.20
2023-04-18T04:04:37.053Z,6.20
2023-04-18T04:05:07.529Z,5.60
2023-04-18T04:05:38.501Z,6.40
2023-04-18T04:06:09.469Z,6.90
2023-04-18T04:06:40.626Z,6.40
2023-04-18T04:07:11.144Z,6.10
2023-04-18T04:07:41.614Z,6.00
2023-04-18T04:08:12.652Z,5.90
2023-04-18T04:08:43.135Z,6.10
2023-04-18T04:09:14.101Z,7.00
2023-04-18T04:09:45.254Z,6.10
2023-04-18T04:10:15.775Z,7.20
2023-04-18T04:10:46.353Z,6.50
2023-04-18T04:11:16.887Z,6.60
2023-04-18T04:11:47.373Z,6.00
2023-04-18T04:12:18.351Z,7.30
2023-04-18T04:12:49.057Z,6.70
2023-04-18T04:13:19.540Z,6.70
2023-04-18T04:13:50.454Z,6.30
2023-04-18T04:14:21.366Z,6.10
2023-04-18T04:14:52.276Z,7.00
2023-04-18T04:15:23.180Z,6.60
2023-04-18T04:15:54.293Z,6.60
2023-04-18T04:16:24.876Z,7.00
2023-04-18T04:16:55.318Z,6.60
2023-04-18T04:17:26.336Z,6.50
2023-04-18T04:17:56.836Z,6.60
2023-04-18T04:18:27.351Z,6.30
2023-04-18T04:18:58.511Z,6.70
2023-04-18T04:19:28.990Z,6.60
2023-04-18T04:19:59.867Z,6.40
2023-04-18T04:20:30.755Z,6.30
2023-04-18T04:21:01.647Z,6.10
2023-04-18T04:21:32.602Z,6.50
2023-04-18T04:22:03.707Z,6.40
2023-04-18T04:22:34.172Z,6.40
2023-04-18T04:23:05.068Z,6.10
2023-04-18T04:23:36.006Z,6.40
2023-04-18T04:24:06.896Z,6.30
2023-04-18T04:24:37.816Z,6.40
2023-04-18T04:25:08.918Z,6.70
2023-04-18T04:25:39.420Z,7.20
2023-04-18T04:26:10.334Z,6.10
2023-04-18T04:26:41.300Z,6.30
2023-04-18T04:27:12.264Z,7.20
2023-04-18T04:27:43.225Z,7.00
2023-04-18T04:28:14.307Z,6.80
2023-04-18T04:28:44.789Z,6.60
2023-04-18T04:29:15.762Z,6.40
2023-04-18T04:29:46.651Z,5.90
2023-04-18T04:30:17.618Z,6.80
2023-04-18T04:30:48.531Z,6.40
2023-04-18T04:31:19.687Z,6.70
2023-04-18T04:31:50.204Z,6.50
2023-04-18T04:32:20.748Z,6.60
2023-04-18T04:32:51.323Z,5.80
2023-04-18T04:33:21.789Z,6.80
2023-04-18T04:33:52.676Z,7.10
2023-04-18T04:34:23.777Z,6.40
2023-04-18T04:34:54.196Z,6.60
2023-04-18T04:35:25.092Z,6.40
2023-04-18T04:35:56.061Z,6.20
2023-04-18T04:36:26.988Z,6.80
2023-04-18T04:36:57.969Z,6.20
2023-04-18T04:37:29.112Z,7.00
2023-04-18T04:37:59.572Z,6.60
2023-04-18T04:38:30.056Z,6.60
2023-04-18T04:39:00.967Z,6.50
2023-04-18T04:39:31.941Z,7.70
2023-04-18T04:40:02.876Z,6.60
2023-04-18T04:40:33.966Z,7.00
2023-04-18T04:41:04.456Z,6.10
2023-04-18T04:41:35.428Z,6.50
2023-04-18T04:42:06.408Z,6.60
2023-04-18T04:42:37.342Z,5.90
2023-04-18T04:43:08.229Z,7.30
2023-04-18T04:43:39.340Z,6.50
2023-04-18T04:44:09.815Z,6.60
2023-04-18T04:44:40.781Z,6.90
2023-04-18T04:45:11.276Z,6.30
2023-04-18T04:45:42.225Z,6.40
2023-04-18T04:46:13.212Z,6.90
2023-04-18T04:46:44.119Z,6.30
2023-04-18T04:47:14.590Z,6.40
2023-04-18T04:47:45.503Z,6.70
2023-04-18T04:48:16.417Z,6.90
2023-04-18T04:48:47.340Z,6.70
2023-04-18T04:49:18.328Z,6.40
2023-04-18T04:49:49.461Z,6.50
2023-04-18T04:50:19.925Z,7.00
2023-04-18T04:50:50.829Z,7.00
2023-04-18T04:51:21.763Z,7.10
2023-04-18T04:51:52.743Z,7.40
2023-04-18T04:52:23.715Z,7.00
2023-04-18T04:52:54.894Z,6.20
2023-04-18T04:53:25.415Z,6.60
2023-04-18T04:53:56.316Z,7.10
2023-04-18T04:54:27.314Z,7.20
2023-04-18T04:54:58.218Z,6.80
2023-04-18T04:55:29.108Z,6.60
2023-04-18T04:56:00.268Z,7.20
2023-04-18T04:56:30.742Z,7.00
2023-04-18T04:57:01.628Z,7.20
2023-04-18T04:57:32.599Z,7.20
2023-04-18T04:58:03.507Z,6.60
2023-04-18T04:58:34.428Z,7.20
2023-04-18T04:59:05.582Z,7.50
2023-04-18T04:59:36.062Z,6.70
2023-04-18T05:00:06.956Z,6.70
2023-04-18T05:00:37.878Z,7.00
2023-04-18T05:01:08.881Z,7.30
2023-04-18T05:01:39.424Z,7.10
2023-04-18T05:02:10.179Z,6.50
2023-04-18T05:02:41.076Z,7.20
2023-04-18T05:03:11.775Z,7.20
2023-04-18T05:03:42.586Z,6.80
2023-04-18T05:04:13.529Z,6.90
2023-04-18T05:04:44.268Z,7.00
2023-04-18T05:05:15.387Z,6.70
2023-04-18T05:05:45.865Z,6.90
2023-04-18T05:06:16.793Z,7.90
2023-04-18T05:06:47.779Z,6.80
2023-04-18T05:07:18.276Z,6.80
2023-04-18T05:07:49.241Z,6.90
2023-04-18T05:08:20.387Z,7.20
2023-04-18T05:08:50.856Z,7.10
2023-04-18T05:09:21.940Z,6.70
2023-04-18T05:09:52.416Z,6.60
2023-04-18T05:10:23.339Z,7.50
2023-04-18T05:10:54.264Z,7.30
2023-04-18T05:11:25.396Z,7.30
2023-04-18T05:11:55.855Z,7.00
2023-04-18T05:12:26.773Z,7.70
2023-04-18T05:12:57.709Z,7.60
2023-04-18T05:13:28.670Z,6.80
2023-04-18T05:13:59.784Z,7.20
2023-04-18T05:14:30.458Z,7.60
2023-04-18T05:15:00.896Z,7.20
2023-04-18T05:15:31.848Z,7.30
2023-04-18T05:16:02.847Z,7.20
2023-04-18T05:16:33.371Z,7.70
2023-04-18T05:17:04.307Z,7.90
2023-04-18T05:17:35.330Z,6.70
2023-04-18T05:18:05.842Z,6.90
2023-04-18T05:18:36.880Z,7.00
2023-04-18T05:19:07.359Z,7.10
2023-04-18T05:19:38.274Z,7.30
2023-04-18T05:20:09.270Z,6.70
2023-04-18T05:20:39.974Z,7.00
2023-04-18T05:21:10.417Z,6.90
2023-04-18T05:21:41.310Z,6.90
2023-04-18T05:22:12.219Z,6.90
2023-04-18T05:22:43.152Z,7.30
2023-04-18T05:23:14.156Z,7.00
2023-04-18T05:23:45.274Z,7.30
2023-04-18T05:24:16.082Z,7.10
2023-04-18T05:24:46.661Z,7.40
2023-04-18T05:25:17.566Z,6.90
2023-04-18T05:25:48.477Z,6.30
2023-04-18T05:26:19.362Z,6.90
2023-04-18T05:26:50.426Z,7.10
2023-04-18T05:27:20.860Z,6.60
2023-04-18T05:27:51.753Z,7.20
2023-04-18T05:28:22.736Z,7.00
2023-04-18T05:28:53.700Z,6.90
2023-04-18T05:29:24.702Z,7.20
2023-04-18T05:29:55.769Z,6.80
2023-04-18T05:30:26.285Z,6.90
2023-04-18T05:30:57.217Z,6.90
2023-04-18T05:31:28.201Z,7.00
2023-04-18T05:31:59.146Z,6.90
2023-04-18T05:32:30.079Z,7.30
2023-04-18T05:33:01.287Z,7.60
2023-04-18T05:33:31.860Z,7.00
2023-04-18T05:34:02.299Z,7.10
2023-04-18T05:34:33.188Z,7.00
2023-04-18T05:35:04.135Z,6.80
2023-04-18T05:35:35.045Z,7.20
2023-04-18T05:36:06.242Z,6.90
2023-04-18T05:36:36.710Z,7.30
2023-04-18T05:37:07.656Z,7.20
2023-04-18T05:37:38.621Z,6.80
2023-04-18T05:38:09.576Z,6.10
2023-04-18T05:38:40.546Z,7.30
2023-04-18T05:39:11.743Z,7.00
2023-04-18T05:39:42.182Z,6.70
2023-04-18T05:40:13.172Z,7.00
2023-04-18T05:40:44.052Z,6.70
2023-04-18T05:41:15.075Z,7.50
2023-04-18T05:41:45.991Z,6.40
2023-04-18T05:42:17.077Z,6.80
2023-04-18T05:42:47.537Z,7.60
2023-04-18T05:43:18.435Z,7.00
2023-04-18T05:44:01.855Z,6.80
2023-04-18T05:44:21.637Z,6.60
2023-04-18T05:44:51.161Z,7.40
2023-04-18T05:45:21.641Z,7.10
2023-04-18T05:45:52.885Z,6.60
2023-04-18T05:46:23.379Z,7.90
2023-04-18T05:46:54.374Z,6.70
2023-04-18T05:47:25.247Z,6.90
2023-04-18T05:47:56.435Z,6.60
2023-04-18T05:48:27.000Z,7.00
2023-04-18T05:48:57.470Z,7.20
2023-04-18T05:49:28.401Z,6.80
2023-04-18T05:49:59.373Z,7.10
2023-04-18T05:50:30.276Z,6.50
2023-04-18T05:51:01.393Z,7.40
2023-04-18T05:51:31.864Z,7.20
2023-04-18T05:52:02.810Z,7.00
2023-04-18T05:52:33.776Z,6.90
2023-04-18T05:53:04.774Z,6.60
2023-04-18T05:53:35.692Z,6.70
2023-04-18T05:54:06.871Z,6.40
2023-04-18T05:54:37.278Z,7.00
2023-04-18T05:55:08.163Z,7.10
2023-04-18T05:55:39.129Z,7.00
2023-04-18T05:56:10.042Z,7.40
2023-04-18T05:56:40.965Z,6.90
2023-04-18T05:57:12.172Z,7.40
2023-04-18T05:57:42.638Z,6.60
2023-04-18T05:58:13.572Z,6.40
2023-04-18T05:58:44.523Z,7.60
2023-04-18T05:59:15.476Z,6.60
2023-04-18T05:59:46.386Z,7.40
2023-04-18T06:00:17.485Z,6.50
2023-04-18T06:00:47.977Z,7.10
2023-04-18T06:01:18.503Z,6.80
2023-04-18T06:01:49.003Z,7.50
2023-04-18T06:02:20.193Z,6.40
2023-04-18T06:02:50.908Z,6.90
2023-04-18T06:03:21.834Z,6.50
2023-04-18T06:03:52.756Z,7.00
2023-04-18T06:04:23.500Z,6.80
2023-04-18T06:04:54.175Z,7.20
2023-04-18T06:05:25.054Z,6.90
2023-04-18T06:05:55.864Z,7.00
2023-04-18T06:06:26.752Z,7.20
2023-04-18T06:06:57.215Z,6.80
2023-04-18T06:07:28.157Z,6.80
2023-04-18T06:07:59.117Z,7.30
2023-04-18T06:08:30.083Z,7.10
2023-04-18T06:09:01.038Z,7.00
2023-04-18T06:09:32.144Z,6.80
2023-04-18T06:10:02.549Z,7.50
2023-04-18T06:10:33.462Z,6.60
2023-04-18T06:11:04.373Z,7.10
2023-04-18T06:11:35.300Z,7.50
2023-04-18T06:12:06.221Z,6.70
2023-04-18T06:12:37.552Z,7.30
2023-04-18T06:13:08.004Z,6.80
2023-04-18T06:13:38.977Z,6.90
2023-04-18T06:14:09.887Z,7.50
2023-04-18T06:14:40.859Z,6.70
2023-04-18T06:15:11.368Z,6.70
2023-04-18T06:15:42.581Z,7.20
2023-04-18T06:16:13.146Z,7.10
2023-04-18T06:16:43.747Z,7.10
2023-04-18T06:17:14.283Z,7.10
2023-04-18T06:17:45.225Z,6.90
2023-04-18T06:18:15.693Z,7.10
2023-04-18T06:18:46.840Z,7.20
2023-04-18T06:19:17.341Z,7.10
2023-04-18T06:19:47.820Z,7.10
2023-04-18T06:20:18.698Z,7.00
2023-04-18T06:20:49.639Z,6.30
2023-04-18T06:21:20.673Z,7.00
2023-04-18T06:21:51.274Z,7.00
2023-04-18T06:22:21.790Z,7.60
2023-04-18T06:22:52.185Z,6.70
2023-04-18T06:23:23.172Z,7.30
2023-04-18T06:23:54.147Z,7.20
2023-04-18T06:24:25.081Z,7.00
2023-04-18T06:24:56.212Z,7.30
2023-04-18T06:25:26.686Z,6.00
2023-04-18T06:25:57.558Z,6.80
2023-04-18T06:26:28.444Z,6.50
2023-04-18T06:26:59.436Z,6.80
2023-04-18T06:27:31.579Z,6.00
2023-04-18T06:28:01.274Z,6.60
2023-04-18T06:28:31.687Z,7.00
2023-04-18T06:29:02.685Z,6.50
2023-04-18T06:29:35.574Z,7.00
2023-04-18T06:30:05.642Z,6.70
2023-04-18T06:30:35.190Z,6.30
2023-04-18T06:31:05.886Z,6.90
2023-04-18T06:31:36.466Z,7.00
2023-04-18T06:32:06.998Z,7.10
2023-04-18T06:32:37.677Z,7.10
2023-04-18T06:33:08.188Z,6.70
2023-04-18T06:33:38.671Z,6.90
2023-04-18T06:34:09.857Z,7.30
2023-04-18T06:34:40.345Z,6.90
2023-04-18T06:35:10.830Z,6.70
2023-04-18T06:35:41.750Z,6.50
2023-04-18T06:36:12.672Z,6.60
2023-04-18T06:36:43.578Z,6.00
2023-04-18T06:37:14.678Z,6.70
2023-04-18T06:37:45.170Z,7.00
2023-04-18T06:38:16.057Z,7.20
2023-04-18T06:38:47.052Z,6.90
2023-04-18T06:39:17.945Z,6.70
2023-04-18T06:39:48.878Z,6.80
2023-04-18T06:40:19.982Z,7.20
2023-04-18T06:40:50.401Z,7.10
2023-04-18T06:41:21.295Z,6.60
2023-04-18T06:41:52.240Z,6.90
2023-04-18T06:42:23.135Z,7.40
2023-04-18T06:42:54.096Z,6.60
2023-04-18T06:43:25.219Z,6.70
2023-04-18T06:44:03.487Z,6.90
2023-04-18T06:44:26.664Z,6.60
2023-04-18T06:44:57.161Z,6.90
2023-04-18T06:45:28.163Z,7.20
2023-04-18T06:45:58.921Z,6.70
2023-04-18T06:46:29.579Z,7.10
2023-04-18T06:47:00.314Z,6.50
2023-04-18T06:47:31.223Z,6.90
2023-04-18T06:48:02.328Z,7.40
2023-04-18T06:48:32.983Z,6.90
2023-04-18T06:49:04.116Z,5.80
2023-04-18T06:49:34.636Z,6.70
2023-04-18T06:50:05.529Z,7.10
2023-04-18T06:50:36.499Z,6.20
2023-04-18T06:51:07.514Z,6.40
2023-04-18T06:51:38.436Z,7.80
2023-04-18T06:52:09.550Z,6.80
2023-04-18T06:52:40.090Z,6.60
2023-04-18T06:53:10.956Z,6.40
2023-04-18T06:53:41.896Z,7.40
2023-04-18T06:54:13.009Z,6.70
2023-04-18T06:54:43.668Z,7.20
2023-04-18T06:55:14.911Z,6.80
2023-04-18T06:55:45.418Z,7.30
2023-04-18T06:56:16.324Z,7.30
2023-04-18T06:56:47.339Z,6.60
2023-04-18T06:57:18.296Z,7.00
2023-04-18T06:57:49.275Z,7.50
2023-04-18T06:58:22.358Z,6.30
2023-04-18T06:58:50.864Z,6.60
2023-04-18T07:00:02.314Z,6.80
2023-04-18T07:00:33.214Z,7.00
2023-04-18T07:01:04.199Z,6.70
2023-04-18T07:01:34.719Z,7.00
2023-04-18T07:02:05.459Z,6.80
2023-04-18T07:02:36.279Z,7.00
2023-04-18T07:03:08.020Z,6.80
2023-04-18T07:03:37.494Z,6.40
2023-04-18T07:04:08.070Z,6.80
2023-04-18T07:04:39.046Z,7.60
2023-04-18T07:05:09.727Z,6.50